sensor_id;sensor_type;location;lat;lon;timestamp;temperature;humidity
30288;DHT22;17103;48.316;11.558;2022-07-24T00:01:51;27.40;49.30
30288;DHT22;17103;48.316;11.558;2022-07-24T00:04:16;27.30;49.20
30288;DHT22;17103;48.316;11.558;2022-07-24T00:06:42;27.30;49.30
30288;DHT22;17103;48.316;11.558;2022-07-24T00:09:08;27.10;49.20
30288;DHT22;17103;48.316;11.558;2022-07-24T00:11:37;27.20;49.30
30288;DHT22;17103;48.316;11.558;2022-07-24T00:14:03;27.00;49.30
30288;DHT22;17103;48.316;11.558;2022-07-24T00:16:29;27.20;49.30
30288;DHT22;17103;48.316;11.558;2022-07-24T00:18:55;27.20;49.40
30288;DHT22;17103;48.316;11.558;2022-07-24T00:21:21;27.20;49.30
30288;DHT22;17103;48.316;11.558;2022-07-24T00:23:48;27.20;49.30
30288;DHT22;17103;48.316;11.558;2022-07-24T00:26:13;27.20;49.30
30288;DHT22;17103;48.316;11.558;2022-07-24T00:28:39;27.20;49.30
30288;DHT22;17103;48.316;11.558;2022-07-24T00:31:07;27.20;49.40
30288;DHT22;17103;48.316;11.558;2022-07-24T00:33:33;27.20;49.40
30288;DHT22;17103;48.316;11.558;2022-07-24T00:35:58;27.30;49.40
30288;DHT22;17103;48.316;11.558;2022-07-24T00:38:24;27.20;49.30
30288;DHT22;17103;48.316;11.558;2022-07-24T00:40:51;27.20;49.40
30288;DHT22;17103;48.316;11.558;2022-07-24T00:43:17;27.20;49.30
30288;DHT22;17103;48.316;11.558;2022-07-24T00:45:44;27.20;49.30
30288;DHT22;17103;48.316;11.558;2022-07-24T00:48:10;27.10;49.30
30288;DHT22;17103;48.316;11.558;2022-07-24T00:50:37;27.20;49.30
30288;DHT22;17103;48.316;11.558;2022-07-24T00:53:03;27.20;49.30
30288;DHT22;17103;48.316;11.558;2022-07-24T00:55:30;27.20;49.30
30288;DHT22;17103;48.316;11.558;2022-07-24T00:57:56;27.20;49.30
30288;DHT22;17103;48.316;11.558;2022-07-24T01:00:23;27.20;49.30
30288;DHT22;17103;48.316;11.558;2022-07-24T01:02:49;27.20;49.30
30288;DHT22;17103;48.316;11.558;2022-07-24T01:05:16;27.20;49.30
30288;DHT22;17103;48.316;11.558;2022-07-24T01:07:43;27.20;49.30
30288;DHT22;17103;48.316;11.558;2022-07-24T01:10:12;27.20;49.40
30288;DHT22;17103;48.316;11.558;2022-07-24T01:12:41;27.20;49.40
30288;DHT22;17103;48.316;11.558;2022-07-24T01:15:10;27.20;49.40
30288;DHT22;17103;48.316;11.558;2022-07-24T01:17:54;27.20;49.40
30288;DHT22;17103;48.316;11.558;2022-07-24T01:20:20;27.20;49.50
30288;DHT22;17103;48.316;11.558;2022-07-24T01:22:46;27.20;49.40
30288;DHT22;17103;48.316;11.558;2022-07-24T01:25:18;27.10;49.40
30288;DHT22;17103;48.316;11.558;2022-07-24T01:27:45;27.10;49.40
30288;DHT22;17103;48.316;11.558;2022-07-24T01:30:16;27.10;49.40
30288;DHT22;17103;48.316;11.558;2022-07-24T01:32:42;27.10;49.50
30288;DHT22;17103;48.316;11.558;2022-07-24T01:35:26;27.10;49.40
30288;DHT22;17103;48.316;11.558;2022-07-24T01:37:55;27.10;49.60
30288;DHT22;17103;48.316;11.558;2022-07-24T01:40:31;27.10;49.50
30288;DHT22;17103;48.316;11.558;2022-07-24T01:42:56;27.10;49.60
30288;DHT22;17103;48.316;11.558;2022-07-24T01:45:24;27.10;49.50
30288;DHT22;17103;48.316;11.558;2022-07-24T01:47:50;27.10;49.60
30288;DHT22;17103;48.316;11.558;2022-07-24T01:50:17;27.10;49.60
30288;DHT22;17103;48.316;11.558;2022-07-24T01:52:42;27.10;49.70
30288;DHT22;17103;48.316;11.558;2022-07-24T01:55:08;27.10;49.70
30288;DHT22;17103;48.316;11.558;2022-07-24T01:57:35;27.10;49.70
30288;DHT22;17103;48.316;11.558;2022-07-24T02:00:04;27.50;50.10
30288;DHT22;17103;48.316;11.558;2022-07-24T02:02:39;27.00;49.70
30288;DHT22;17103;48.316;11.558;2022-07-24T02:05:08;27.00;49.70
30288;DHT22;17103;48.316;11.558;2022-07-24T02:07:34;27.00;49.80
30288;DHT22;17103;48.316;11.558;2022-07-24T02:10:02;27.00;49.70
30288;DHT22;17103;48.316;11.558;2022-07-24T02:12:28;27.00;49.80
30288;DHT22;17103;48.316;11.558;2022-07-24T02:14:54;27.00;49.80
30288;DHT22;17103;48.316;11.558;2022-07-24T02:17:19;26.90;49.70
30288;DHT22;17103;48.316;11.558;2022-07-24T02:19:45;27.00;49.70
30288;DHT22;17103;48.316;11.558;2022-07-24T02:22:11;27.00;49.70
30288;DHT22;17103;48.316;11.558;2022-07-24T02:24:37;27.00;49.80
30288;DHT22;17103;48.316;11.558;2022-07-24T02:27:03;26.90;49.80
30288;DHT22;17103;48.316;11.558;2022-07-24T02:29:29;26.90;49.70
30288;DHT22;17103;48.316;11.558;2022-07-24T02:31:54;26.90;49.70
30288;DHT22;17103;48.316;11.558;2022-07-24T02:34:20;26.90;49.80
30288;DHT22;17103;48.316;11.558;2022-07-24T02:36:46;26.90;49.80
30288;DHT22;17103;48.316;11.558;2022-07-24T02:39:12;26.90;49.70
30288;DHT22;17103;48.316;11.558;2022-07-24T02:41:38;26.80;49.70
30288;DHT22;17103;48.316;11.558;2022-07-24T02:44:05;26.90;49.70
30288;DHT22;17103;48.316;11.558;2022-07-24T02:46:31;26.90;49.70
30288;DHT22;17103;48.316;11.558;2022-07-24T02:48:57;26.80;49.70
30288;DHT22;17103;48.316;11.558;2022-07-24T02:51:23;26.80;49.80
30288;DHT22;17103;48.316;11.558;2022-07-24T02:53:49;26.80;49.90
30288;DHT22;17103;48.316;11.558;2022-07-24T02:56:15;26.80;50.00
30288;DHT22;17103;48.316;11.558;2022-07-24T02:58:40;26.70;50.00
30288;DHT22;17103;48.316;11.558;2022-07-24T03:01:07;26.70;50.00
30288;DHT22;17103;48.316;11.558;2022-07-24T03:03:33;26.70;50.00
30288;DHT22;17103;48.316;11.558;2022-07-24T03:05:58;26.70;50.10
30288;DHT22;17103;48.316;11.558;2022-07-24T03:08:24;26.70;50.60
30288;DHT22;17103;48.316;11.558;2022-07-24T03:10:50;26.70;50.10
30288;DHT22;17103;48.316;11.558;2022-07-24T03:13:15;26.70;49.80
30288;DHT22;17103;48.316;11.558;2022-07-24T03:15:41;26.60;50.10
30288;DHT22;17103;48.316;11.558;2022-07-24T03:18:07;26.60;50.30
30288;DHT22;17103;48.316;11.558;2022-07-24T03:20:32;26.60;50.30
30288;DHT22;17103;48.316;11.558;2022-07-24T03:22:59;26.60;50.30
30288;DHT22;17103;48.316;11.558;2022-07-24T03:25:25;26.50;50.40
30288;DHT22;17103;48.316;11.558;2022-07-24T03:27:50;26.40;50.90
30288;DHT22;17103;48.316;11.558;2022-07-24T03:30:17;26.40;50.50
30288;DHT22;17103;48.316;11.558;2022-07-24T03:32:44;26.40;50.60
30288;DHT22;17103;48.316;11.558;2022-07-24T03:35:11;26.40;50.60
30288;DHT22;17103;48.316;11.558;2022-07-24T03:37:37;26.40;50.70
30288;DHT22;17103;48.316;11.558;2022-07-24T03:40:04;26.40;50.80
30288;DHT22;17103;48.316;11.558;2022-07-24T03:42:30;26.40;50.80
30288;DHT22;17103;48.316;11.558;2022-07-24T03:44:55;26.30;50.90
30288;DHT22;17103;48.316;11.558;2022-07-24T03:47:21;26.30;50.90
30288;DHT22;17103;48.316;11.558;2022-07-24T03:49:47;26.30;51.00
30288;DHT22;17103;48.316;11.558;2022-07-24T03:52:12;26.20;51.00
30288;DHT22;17103;48.316;11.558;2022-07-24T03:54:38;26.20;51.60
30288;DHT22;17103;48.316;11.558;2022-07-24T03:57:04;26.10;51.10
30288;DHT22;17103;48.316;11.558;2022-07-24T03:59:29;26.10;51.10
30288;DHT22;17103;48.316;11.558;2022-07-24T04:01:56;26.10;51.10
30288;DHT22;17103;48.316;11.558;2022-07-24T04:04:23;26.10;51.20
30288;DHT22;17103;48.316;11.558;2022-07-24T04:06:48;26.10;51.20
30288;DHT22;17103;48.316;11.558;2022-07-24T04:09:14;26.10;51.20
30288;DHT22;17103;48.316;11.558;2022-07-24T04:11:41;26.10;51.30
30288;DHT22;17103;48.316;11.558;2022-07-24T04:14:07;26.10;51.40
30288;DHT22;17103;48.316;11.558;2022-07-24T04:16:32;26.10;51.30
30288;DHT22;17103;48.316;11.558;2022-07-24T04:19:00;26.10;51.30
30288;DHT22;17103;48.316;11.558;2022-07-24T04:21:26;26.10;51.40
30288;DHT22;17103;48.316;11.558;2022-07-24T04:23:54;26.00;51.30
30288;DHT22;17103;48.316;11.558;2022-07-24T04:26:20;26.00;51.20
30288;DHT22;17103;48.316;11.558;2022-07-24T04:28:46;26.10;51.20
30288;DHT22;17103;48.316;11.558;2022-07-24T04:31:11;26.00;51.10
30288;DHT22;17103;48.316;11.558;2022-07-24T04:33:37;26.10;51.20
30288;DHT22;17103;48.316;11.558;2022-07-24T04:36:04;26.10;51.10
30288;DHT22;17103;48.316;11.558;2022-07-24T04:38:33;26.10;50.60
30288;DHT22;17103;48.316;11.558;2022-07-24T04:40:58;26.10;51.10
30288;DHT22;17103;48.316;11.558;2022-07-24T04:43:24;26.10;51.10
30288;DHT22;17103;48.316;11.558;2022-07-24T04:45:50;26.10;51.10
30288;DHT22;17103;48.316;11.558;2022-07-24T04:48:16;26.10;51.00
30288;DHT22;17103;48.316;11.558;2022-07-24T04:50:42;26.10;50.90
30288;DHT22;17103;48.316;11.558;2022-07-24T04:53:08;26.10;50.90
30288;DHT22;17103;48.316;11.558;2022-07-24T04:55:33;26.10;51.00
30288;DHT22;17103;48.316;11.558;2022-07-24T04:57:59;26.10;51.00
30288;DHT22;17103;48.316;11.558;2022-07-24T05:00:25;26.10;51.00
30288;DHT22;17103;48.316;11.558;2022-07-24T05:02:50;26.00;50.70
30288;DHT22;17103;48.316;11.558;2022-07-24T05:05:16;26.10;50.90
30288;DHT22;17103;48.316;11.558;2022-07-24T05:07:42;26.00;51.00
30288;DHT22;17103;48.316;11.558;2022-07-24T05:10:07;26.10;51.10
30288;DHT22;17103;48.316;11.558;2022-07-24T05:12:33;26.10;51.20
30288;DHT22;17103;48.316;11.558;2022-07-24T05:14:59;26.10;51.30
30288;DHT22;17103;48.316;11.558;2022-07-24T05:17:25;25.90;51.20
30288;DHT22;17103;48.316;11.558;2022-07-24T05:19:54;26.00;51.20
30288;DHT22;17103;48.316;11.558;2022-07-24T05:22:19;26.00;51.30
30288;DHT22;17103;48.316;11.558;2022-07-24T05:24:48;26.00;51.30
30288;DHT22;17103;48.316;11.558;2022-07-24T05:27:16;26.00;51.30
30288;DHT22;17103;48.316;11.558;2022-07-24T05:29:44;26.00;51.20
30288;DHT22;17103;48.316;11.558;2022-07-24T05:35:35;26.00;51.40
30288;DHT22;17103;48.316;11.558;2022-07-24T05:38:03;26.00;51.20
30288;DHT22;17103;48.316;11.558;2022-07-24T05:40:38;26.00;51.20
30288;DHT22;17103;48.316;11.558;2022-07-24T05:43:05;26.00;51.30
30288;DHT22;17103;48.316;11.558;2022-07-24T05:45:32;26.00;51.10
30288;DHT22;17103;48.316;11.558;2022-07-24T05:48:01;26.00;51.10
30288;DHT22;17103;48.316;11.558;2022-07-24T05:50:30;26.00;51.00
30288;DHT22;17103;48.316;11.558;2022-07-24T05:53:02;26.10;50.90
30288;DHT22;17103;48.316;11.558;2022-07-24T05:55:30;26.10;51.00
30288;DHT22;17103;48.316;11.558;2022-07-24T05:57:57;26.10;50.90
30288;DHT22;17103;48.316;11.558;2022-07-24T06:00:23;26.10;50.80
30288;DHT22;17103;48.316;11.558;2022-07-24T06:02:52;26.10;50.60
30288;DHT22;17103;48.316;11.558;2022-07-24T06:05:19;26.10;50.20
30288;DHT22;17103;48.316;11.558;2022-07-24T06:07:44;26.20;50.20
30288;DHT22;17103;48.316;11.558;2022-07-24T06:10:13;26.10;50.10
30288;DHT22;17103;48.316;11.558;2022-07-24T06:12:54;26.20;50.00
30288;DHT22;17103;48.316;11.558;2022-07-24T06:15:20;26.20;49.20
30288;DHT22;17103;48.316;11.558;2022-07-24T06:17:47;26.20;49.30
30288;DHT22;17103;48.316;11.558;2022-07-24T06:20:13;26.20;49.30
30288;DHT22;17103;48.316;11.558;2022-07-24T06:22:45;26.20;49.20
30288;DHT22;17103;48.316;11.558;2022-07-24T06:28:25;26.20;49.00
30288;DHT22;17103;48.316;11.558;2022-07-24T06:30:52;26.30;48.80
30288;DHT22;17103;48.316;11.558;2022-07-24T06:33:18;26.30;48.50
30288;DHT22;17103;48.316;11.558;2022-07-24T06:35:44;26.30;48.70
30288;DHT22;17103;48.316;11.558;2022-07-24T06:38:15;26.30;48.80
30288;DHT22;17103;48.316;11.558;2022-07-24T06:40:44;26.30;48.80
30288;DHT22;17103;48.316;11.558;2022-07-24T06:43:38;26.30;48.70
30288;DHT22;17103;48.316;11.558;2022-07-24T06:46:05;26.40;48.60
30288;DHT22;17103;48.316;11.558;2022-07-24T06:48:38;26.40;48.90
30288;DHT22;17103;48.316;11.558;2022-07-24T06:51:05;26.40;48.90
30288;DHT22;17103;48.316;11.558;2022-07-24T06:53:32;26.40;48.70
30288;DHT22;17103;48.316;11.558;2022-07-24T06:55:57;26.50;48.30
30288;DHT22;17103;48.316;11.558;2022-07-24T06:58:30;26.50;48.00
30288;DHT22;17103;48.316;11.558;2022-07-24T07:00:56;26.30;47.70
30288;DHT22;17103;48.316;11.558;2022-07-24T07:03:22;26.50;48.20
30288;DHT22;17103;48.316;11.558;2022-07-24T07:05:47;26.50;48.20
30288;DHT22;17103;48.316;11.558;2022-07-24T07:08:13;26.60;48.40
30288;DHT22;17103;48.316;11.558;2022-07-24T07:10:39;26.60;48.30
30288;DHT22;17103;48.316;11.558;2022-07-24T07:13:06;26.70;48.40
30288;DHT22;17103;48.316;11.558;2022-07-24T07:15:33;26.70;47.90
30288;DHT22;17103;48.316;11.558;2022-07-24T07:17:59;26.70;47.60
30288;DHT22;17103;48.316;11.558;2022-07-24T07:20:26;26.80;47.90
30288;DHT22;17103;48.316;11.558;2022-07-24T07:22:51;26.80;47.90
30288;DHT22;17103;48.316;11.558;2022-07-24T07:25:17;26.90;48.00
30288;DHT22;17103;48.316;11.558;2022-07-24T07:27:43;26.90;47.90
30288;DHT22;17103;48.316;11.558;2022-07-24T07:30:08;27.00;48.10
30288;DHT22;17103;48.316;11.558;2022-07-24T07:32:35;27.10;48.00
30288;DHT22;17103;48.316;11.558;2022-07-24T07:35:01;27.10;47.60
30288;DHT22;17103;48.316;11.558;2022-07-24T07:37:27;27.10;47.20
30288;DHT22;17103;48.316;11.558;2022-07-24T07:39:52;27.20;47.40
30288;DHT22;17103;48.316;11.558;2022-07-24T07:42:18;27.30;47.30
30288;DHT22;17103;48.316;11.558;2022-07-24T07:44:45;27.30;47.30
30288;DHT22;17103;48.316;11.558;2022-07-24T07:47:10;27.30;47.20
30288;DHT22;17103;48.316;11.558;2022-07-24T07:49:36;27.30;47.30
30288;DHT22;17103;48.316;11.558;2022-07-24T07:52:02;27.40;47.40
30288;DHT22;17103;48.316;11.558;2022-07-24T07:54:28;27.40;47.30
30288;DHT22;17103;48.316;11.558;2022-07-24T07:56:54;27.50;46.90
30288;DHT22;17103;48.316;11.558;2022-07-24T07:59:19;27.60;46.80
30288;DHT22;17103;48.316;11.558;2022-07-24T08:01:45;27.60;46.70
30288;DHT22;17103;48.316;11.558;2022-07-24T08:04:11;27.70;46.20
30288;DHT22;17103;48.316;11.558;2022-07-24T08:06:38;27.70;46.10
30288;DHT22;17103;48.316;11.558;2022-07-24T08:09:03;27.80;45.60
30288;DHT22;17103;48.316;11.558;2022-07-24T08:11:29;27.80;45.00
30288;DHT22;17103;48.316;11.558;2022-07-24T08:13:55;27.90;45.30
30288;DHT22;17103;48.316;11.558;2022-07-24T08:16:21;27.90;45.60
30288;DHT22;17103;48.316;11.558;2022-07-24T08:18:47;28.00;45.50
30288;DHT22;17103;48.316;11.558;2022-07-24T08:21:14;28.00;45.30
30288;DHT22;17103;48.316;11.558;2022-07-24T08:23:41;28.10;45.40
30288;DHT22;17103;48.316;11.558;2022-07-24T08:26:07;28.20;44.70
30288;DHT22;17103;48.316;11.558;2022-07-24T08:28:32;28.30;44.90
30288;DHT22;17103;48.316;11.558;2022-07-24T08:30:58;28.30;45.00
30288;DHT22;17103;48.316;11.558;2022-07-24T08:33:24;28.40;45.00
30288;DHT22;17103;48.316;11.558;2022-07-24T08:35:50;28.50;44.90
30288;DHT22;17103;48.316;11.558;2022-07-24T08:38:19;28.60;44.90
30288;DHT22;17103;48.316;11.558;2022-07-24T08:40:45;28.70;44.90
30288;DHT22;17103;48.316;11.558;2022-07-24T08:43:11;28.80;45.00
30288;DHT22;17103;48.316;11.558;2022-07-24T08:45:39;28.80;44.40
30288;DHT22;17103;48.316;11.558;2022-07-24T08:48:07;28.90;44.30
30288;DHT22;17103;48.316;11.558;2022-07-24T08:50:37;29.00;44.00
30288;DHT22;17103;48.316;11.558;2022-07-24T08:53:04;29.10;43.40
30288;DHT22;17103;48.316;11.558;2022-07-24T08:55:30;29.20;43.80
30288;DHT22;17103;48.316;11.558;2022-07-24T08:57:56;29.30;43.10
30288;DHT22;17103;48.316;11.558;2022-07-24T09:00:27;29.30;42.70
30288;DHT22;17103;48.316;11.558;2022-07-24T09:02:53;29.40;42.10
30288;DHT22;17103;48.316;11.558;2022-07-24T09:05:19;29.50;42.30
30288;DHT22;17103;48.316;11.558;2022-07-24T09:07:46;29.60;41.90
30288;DHT22;17103;48.316;11.558;2022-07-24T09:10:13;29.60;42.10
30288;DHT22;17103;48.316;11.558;2022-07-24T09:12:43;29.70;41.60
30288;DHT22;17103;48.316;11.558;2022-07-24T09:15:15;29.70;40.30
30288;DHT22;17103;48.316;11.558;2022-07-24T09:17:51;29.80;40.60
30288;DHT22;17103;48.316;11.558;2022-07-24T09:20:17;29.80;40.80
30288;DHT22;17103;48.316;11.558;2022-07-24T09:22:44;29.90;41.20
30288;DHT22;17103;48.316;11.558;2022-07-24T09:28:01;30.00;41.00
30288;DHT22;17103;48.316;11.558;2022-07-24T09:32:56;30.10;41.40
30288;DHT22;17103;48.316;11.558;2022-07-24T09:35:45;30.20;41.60
30288;DHT22;17103;48.316;11.558;2022-07-24T09:38:15;30.30;41.20
30288;DHT22;17103;48.316;11.558;2022-07-24T09:40:45;30.40;41.40
30288;DHT22;17103;48.316;11.558;2022-07-24T09:43:26;30.50;40.00
30288;DHT22;17103;48.316;11.558;2022-07-24T09:46:05;30.50;40.00
30288;DHT22;17103;48.316;11.558;2022-07-24T09:48:32;30.60;39.70
30288;DHT22;17103;48.316;11.558;2022-07-24T09:51:04;30.60;41.20
30288;DHT22;17103;48.316;11.558;2022-07-24T09:53:32;30.70;40.40
30288;DHT22;17103;48.316;11.558;2022-07-24T09:56:01;30.80;40.00
30288;DHT22;17103;48.316;11.558;2022-07-24T09:58:30;30.80;39.80
30288;DHT22;17103;48.316;11.558;2022-07-24T10:00:58;30.90;40.20
30288;DHT22;17103;48.316;11.558;2022-07-24T10:03:29;31.00;39.40
30288;DHT22;17103;48.316;11.558;2022-07-24T10:05:58;31.00;38.90
30288;DHT22;17103;48.316;11.558;2022-07-24T10:08:25;31.10;39.10
30288;DHT22;17103;48.316;11.558;2022-07-24T10:10:52;31.10;39.20
30288;DHT22;17103;48.316;11.558;2022-07-24T10:13:22;31.20;39.70
30288;DHT22;17103;48.316;11.558;2022-07-24T10:18:35;31.30;37.50
30288;DHT22;17103;48.316;11.558;2022-07-24T10:21:08;31.30;37.90
30288;DHT22;17103;48.316;11.558;2022-07-24T10:24:10;31.40;38.10
30288;DHT22;17103;48.316;11.558;2022-07-24T10:26:41;31.40;37.90
30288;DHT22;17103;48.316;11.558;2022-07-24T10:29:12;31.40;37.90
30288;DHT22;17103;48.316;11.558;2022-07-24T10:31:46;31.40;37.30
30288;DHT22;17103;48.316;11.558;2022-07-24T10:42:15;31.60;38.80
30288;DHT22;17103;48.316;11.558;2022-07-24T10:44:41;31.70;38.30
30288;DHT22;17103;48.316;11.558;2022-07-24T10:47:12;31.70;38.70
30288;DHT22;17103;48.316;11.558;2022-07-24T10:49:48;31.80;38.70
30288;DHT22;17103;48.316;11.558;2022-07-24T10:52:41;31.80;37.90
30288;DHT22;17103;48.316;11.558;2022-07-24T10:55:35;31.90;38.50
30288;DHT22;17103;48.316;11.558;2022-07-24T10:58:19;32.00;37.30
30288;DHT22;17103;48.316;11.558;2022-07-24T11:00:50;32.10;37.10
30288;DHT22;17103;48.316;11.558;2022-07-24T11:03:23;32.10;37.80
30288;DHT22;17103;48.316;11.558;2022-07-24T11:08:53;32.20;36.90
30288;DHT22;17103;48.316;11.558;2022-07-24T11:11:27;32.30;37.00
30288;DHT22;17103;48.316;11.558;2022-07-24T11:13:54;32.30;36.80
30288;DHT22;17103;48.316;11.558;2022-07-24T11:16:24;32.30;37.90
30288;DHT22;17103;48.316;11.558;2022-07-24T11:21:38;32.40;37.20
30288;DHT22;17103;48.316;11.558;2022-07-24T11:24:24;32.50;36.80
30288;DHT22;17103;48.316;11.558;2022-07-24T11:27:15;32.50;36.70
30288;DHT22;17103;48.316;11.558;2022-07-24T11:29:42;32.50;36.10
30288;DHT22;17103;48.316;11.558;2022-07-24T11:32:17;32.60;36.20
30288;DHT22;17103;48.316;11.558;2022-07-24T11:34:51;32.60;35.90
30288;DHT22;17103;48.316;11.558;2022-07-24T11:37:18;32.70;36.10
30288;DHT22;17103;48.316;11.558;2022-07-24T11:39:45;32.70;36.20
30288;DHT22;17103;48.316;11.558;2022-07-24T11:42:13;32.70;36.50
30288;DHT22;17103;48.316;11.558;2022-07-24T11:44:48;32.80;36.20
30288;DHT22;17103;48.316;11.558;2022-07-24T11:47:22;32.80;36.00
30288;DHT22;17103;48.316;11.558;2022-07-24T11:49:55;32.90;36.10
30288;DHT22;17103;48.316;11.558;2022-07-24T11:52:26;32.90;36.10
30288;DHT22;17103;48.316;11.558;2022-07-24T11:54:58;33.00;36.70
30288;DHT22;17103;48.316;11.558;2022-07-24T11:57:43;33.10;36.60
30288;DHT22;17103;48.316;11.558;2022-07-24T12:00:17;33.10;36.10
30288;DHT22;17103;48.316;11.558;2022-07-24T12:02:51;33.20;36.10
30288;DHT22;17103;48.316;11.558;2022-07-24T12:05:33;33.30;36.00
30288;DHT22;17103;48.316;11.558;2022-07-24T12:08:01;33.30;36.10
30288;DHT22;17103;48.316;11.558;2022-07-24T12:10:28;33.40;35.30
30288;DHT22;17103;48.316;11.558;2022-07-24T12:12:55;33.40;36.20
30288;DHT22;17103;48.316;11.558;2022-07-24T12:15:22;33.40;35.90
30288;DHT22;17103;48.316;11.558;2022-07-24T12:18:03;33.40;35.20
30288;DHT22;17103;48.316;11.558;2022-07-24T12:20:33;33.40;35.40
30288;DHT22;17103;48.316;11.558;2022-07-24T12:23:01;33.40;34.90
30288;DHT22;17103;48.316;11.558;2022-07-24T12:25:28;33.40;34.90
30288;DHT22;17103;48.316;11.558;2022-07-24T12:28:06;33.40;35.30
30288;DHT22;17103;48.316;11.558;2022-07-24T12:30:37;33.30;33.40
30288;DHT22;17103;48.316;11.558;2022-07-24T12:33:06;33.30;33.20
30288;DHT22;17103;48.316;11.558;2022-07-24T12:38:34;33.40;33.50
30288;DHT22;17103;48.316;11.558;2022-07-24T12:41:14;33.40;34.10
30288;DHT22;17103;48.316;11.558;2022-07-24T12:46:24;33.50;34.10
30288;DHT22;17103;48.316;11.558;2022-07-24T12:49:16;33.60;34.00
30288;DHT22;17103;48.316;11.558;2022-07-24T12:51:55;33.70;34.00
30288;DHT22;17103;48.316;11.558;2022-07-24T12:54:31;33.80;33.50
30288;DHT22;17103;48.316;11.558;2022-07-24T12:56:59;34.00;32.80
30288;DHT22;17103;48.316;11.558;2022-07-24T12:59:32;34.10;33.40
30288;DHT22;17103;48.316;11.558;2022-07-24T13:02:03;34.10;33.70
30288;DHT22;17103;48.316;11.558;2022-07-24T13:04:31;34.30;33.80
30288;DHT22;17103;48.316;11.558;2022-07-24T13:07:00;34.40;33.90
30288;DHT22;17103;48.316;11.558;2022-07-24T13:09:28;34.50;33.80
30288;DHT22;17103;48.316;11.558;2022-07-24T13:11:55;34.70;32.00
30288;DHT22;17103;48.316;11.558;2022-07-24T13:14:22;34.70;32.30
30288;DHT22;17103;48.316;11.558;2022-07-24T13:16:52;34.80;32.50
30288;DHT22;17103;48.316;11.558;2022-07-24T13:19:19;35.00;33.50
30288;DHT22;17103;48.316;11.558;2022-07-24T13:21:46;35.10;32.60
30288;DHT22;17103;48.316;11.558;2022-07-24T13:24:13;35.10;32.50
30288;DHT22;17103;48.316;11.558;2022-07-24T13:26:41;35.30;32.80
30288;DHT22;17103;48.316;11.558;2022-07-24T13:29:07;35.40;32.40
30288;DHT22;17103;48.316;11.558;2022-07-24T13:31:33;35.50;32.30
30288;DHT22;17103;48.316;11.558;2022-07-24T13:33:59;35.60;32.60
30288;DHT22;17103;48.316;11.558;2022-07-24T13:36:25;35.80;32.10
30288;DHT22;17103;48.316;11.558;2022-07-24T13:38:51;35.80;31.80
30288;DHT22;17103;48.316;11.558;2022-07-24T13:41:17;36.00;30.00
30288;DHT22;17103;48.316;11.558;2022-07-24T13:43:46;36.10;30.40
30288;DHT22;17103;48.316;11.558;2022-07-24T13:46:13;36.10;29.90
30288;DHT22;17103;48.316;11.558;2022-07-24T13:48:39;36.20;29.70
30288;DHT22;17103;48.316;11.558;2022-07-24T13:51:05;36.20;29.30
30288;DHT22;17103;48.316;11.558;2022-07-24T13:53:31;36.30;30.40
30288;DHT22;17103;48.316;11.558;2022-07-24T13:55:57;36.30;29.60
30288;DHT22;17103;48.316;11.558;2022-07-24T13:58:22;36.30;29.50
30288;DHT22;17103;48.316;11.558;2022-07-24T14:00:48;36.30;29.50
30288;DHT22;17103;48.316;11.558;2022-07-24T14:03:14;36.40;29.30
30288;DHT22;17103;48.316;11.558;2022-07-24T14:05:42;36.40;28.90
30288;DHT22;17103;48.316;11.558;2022-07-24T14:08:08;36.40;29.40
30288;DHT22;17103;48.316;11.558;2022-07-24T14:10:35;36.50;29.50
30288;DHT22;17103;48.316;11.558;2022-07-24T14:13:01;36.50;29.40
30288;DHT22;17103;48.316;11.558;2022-07-24T14:15:26;36.70;29.50
30288;DHT22;17103;48.316;11.558;2022-07-24T14:17:55;36.80;29.30
30288;DHT22;17103;48.316;11.558;2022-07-24T14:20:21;36.90;28.70
30288;DHT22;17103;48.316;11.558;2022-07-24T14:22:47;37.00;28.70
30288;DHT22;17103;48.316;11.558;2022-07-24T14:25:15;37.00;28.10
30288;DHT22;17103;48.316;11.558;2022-07-24T14:27:41;37.10;27.70
30288;DHT22;17103;48.316;11.558;2022-07-24T14:30:07;37.10;27.80
30288;DHT22;17103;48.316;11.558;2022-07-24T14:32:33;37.20;28.00
30288;DHT22;17103;48.316;11.558;2022-07-24T14:34:59;37.20;28.30
30288;DHT22;17103;48.316;11.558;2022-07-24T14:37:25;37.30;27.70
30288;DHT22;17103;48.316;11.558;2022-07-24T14:39:51;37.30;28.40
30288;DHT22;17103;48.316;11.558;2022-07-24T14:42:16;37.40;28.70
30288;DHT22;17103;48.316;11.558;2022-07-24T14:44:42;37.50;28.50
30288;DHT22;17103;48.316;11.558;2022-07-24T14:47:09;37.60;27.90
30288;DHT22;17103;48.316;11.558;2022-07-24T14:49:34;37.70;27.70
30288;DHT22;17103;48.316;11.558;2022-07-24T14:52:00;37.80;27.60
30288;DHT22;17103;48.316;11.558;2022-07-24T14:54:26;37.80;28.00
30288;DHT22;17103;48.316;11.558;2022-07-24T14:56:51;37.90;27.60
30288;DHT22;17103;48.316;11.558;2022-07-24T14:59:17;38.00;28.00
30288;DHT22;17103;48.316;11.558;2022-07-24T15:01:43;38.10;27.10
30288;DHT22;17103;48.316;11.558;2022-07-24T15:04:09;38.10;27.50
30288;DHT22;17103;48.316;11.558;2022-07-24T15:06:35;38.20;27.80
30288;DHT22;17103;48.316;11.558;2022-07-24T15:09:04;38.30;28.00
30288;DHT22;17103;48.316;11.558;2022-07-24T15:11:30;38.40;27.40
30288;DHT22;17103;48.316;11.558;2022-07-24T15:13:56;38.40;27.80
30288;DHT22;17103;48.316;11.558;2022-07-24T15:16:22;38.50;27.80
30288;DHT22;17103;48.316;11.558;2022-07-24T15:18:48;38.60;27.40
30288;DHT22;17103;48.316;11.558;2022-07-24T15:21:13;38.60;27.50
30288;DHT22;17103;48.316;11.558;2022-07-24T15:23:42;38.70;27.30
30288;DHT22;17103;48.316;11.558;2022-07-24T15:26:08;38.80;26.90
30288;DHT22;17103;48.316;11.558;2022-07-24T15:28:34;38.80;26.60
30288;DHT22;17103;48.316;11.558;2022-07-24T15:30:59;38.80;26.60
30288;DHT22;17103;48.316;11.558;2022-07-24T15:33:32;38.80;26.40
30288;DHT22;17103;48.316;11.558;2022-07-24T15:35:58;38.80;26.30
30288;DHT22;17103;48.316;11.558;2022-07-24T15:38:24;38.90;26.90
30288;DHT22;17103;48.316;11.558;2022-07-24T15:43:44;39.00;28.00
30288;DHT22;17103;48.316;11.558;2022-07-24T15:46:12;39.10;27.30
30288;DHT22;17103;48.316;11.558;2022-07-24T15:48:38;39.20;27.90
30288;DHT22;17103;48.316;11.558;2022-07-24T15:51:04;39.30;27.60
30288;DHT22;17103;48.316;11.558;2022-07-24T15:53:29;39.40;27.40
30288;DHT22;17103;48.316;11.558;2022-07-24T15:55:55;39.40;27.40
30288;DHT22;17103;48.316;11.558;2022-07-24T15:58:21;39.50;27.80